EmailTwitter


Observations de surface / Québec / CYMX

Régions: Québec | Canada | États-Unis | Europe | France | UK | Ailleurs
Station
Affichage
Infos & localisation pour CYMX | Aide pour décoder les METARs

Observations prises le 2019-09-22 à 18H00 UTC à MONTREAL MIRABEL, QB (CYMX)

Etat du ciel: partiellement nuageux.

Température: 25.0 Celsius

Point de rosée: 19.0 Celsius

Humidité relative: 69%

Indice Humidex: 32.

Vents: Sud-ouest à 19 km/h ou 10 noeuds.

Rafale du vent: 33 km/h ou 18 noeuds.

Pression au niveau moyen de la mer: 101.24 kilopascals.

Calage altimétrique: 101.22 kilopascals ou 29.89 pouces de mercure.

Visibilité horizontale: 20.00 milles terrestres ou 32.00 kilomètres.

Hauteur du plafond: 4572 mètres ( 15000 pieds ).

Observation METAR:

CYMX 221800Z 23010G18KT 200V270 20SM FEW042 SCT080 BKN150 OVC220 25/19 A2989

RMK SC2AC2AC2CS2 SLP124 DENSITY ALT 1600FT=